Epinal-Mirecourt Airport


Codes: LFSG/EPL
Name: Epinal-Mirecourt Airport
City: Epinal/Mirecourt
Country: France
Elevation: 1084 ft.

Photos at Epinal-Mirecourt Airport


   Photos courtesy of SpottingLog. You can add your own sightings and photos by signing up for a free trial today.



No photos found.

Weather at Epinal-Mirecourt Airport


Time (UTC)DescriptionTempratureWindCloud coverageVisibilityPressureHumidity
18-Apr-2024 00:00Overcast Clouds3°C4 mph, NW100%10000m1013hPa90%
18-Apr-2024 03:00Broken Clouds1°C4 mph, NW74%10000m1014hPa92%
18-Apr-2024 06:00Scattered Clouds1°C4 mph, NW33%10000m1017hPa93%
18-Apr-2024 09:00Broken Clouds5°C9 mph, N53%10000m1018hPa77%
18-Apr-2024 12:00Broken Clouds4°C7 mph, N77%10000m1020hPa79%
18-Apr-2024 15:00Overcast Clouds8°C11 mph, N85%10000m1020hPa69%
18-Apr-2024 18:00Broken Clouds5°C4 mph, N74%10000m1021hPa79%
18-Apr-2024 21:00Broken Clouds3°C2 mph, SW70%10000m1023hPa77%
19-Apr-2024 00:00Broken Clouds2°C4 mph, SW70%10000m1023hPa86%
19-Apr-2024 03:00Overcast Clouds2°C9 mph, SW100%10000m1022hPa89%
19-Apr-2024 06:00Overcast Clouds4°C13 mph, SW100%10000m1021hPa82%
19-Apr-2024 09:00Light Rain7°C20 mph, W100%10000m1019hPa78%
19-Apr-2024 12:00Light Rain6°C18 mph, W100%10000m1017hPa89%
19-Apr-2024 15:00Light Rain6°C18 mph, W100%10000m1015hPa93%
19-Apr-2024 18:00Light Rain6°C13 mph, NW100%10000m1015hPa95%
19-Apr-2024 21:00Light Rain3°C11 mph, NW55%10000m1018hPa94%
20-Apr-2024 00:00Scattered Clouds1°C9 mph, NW37%10000m1020hPa96%
20-Apr-2024 03:00Overcast Clouds2°C9 mph, NW100%10000m1021hPa96%
20-Apr-2024 06:00Light Rain4°C7 mph, NW98%10000m1022hPa94%
20-Apr-2024 09:00Scattered Clouds7°C11 mph, N47%10000m1023hPa65%
20-Apr-2024 12:00Light Rain8°C11 mph, N72%10000m1023hPa59%
20-Apr-2024 15:00Light Rain9°C11 mph, N100%10000m1023hPa62%
20-Apr-2024 18:00Light Rain5°C4 mph, NW71%10000m1024hPa80%
20-Apr-2024 21:00Scattered Clouds2°C4 mph, NW25%10000m1026hPa91%
21-Apr-2024 00:00Scattered Clouds1°C4 mph, NW35%10000m1026hPa97%
21-Apr-2024 03:00Broken Clouds2°C7 mph, N81%10000m1025hPa96%
21-Apr-2024 06:00Broken Clouds1°C4 mph, NW82%10000m1025hPa91%
21-Apr-2024 09:00Light Snow3°C9 mph, N89%10000m1024hPa94%
21-Apr-2024 12:00Light Rain4°C9 mph, N95%0m1023hPa97%
21-Apr-2024 15:00Light Rain4°C9 mph, N100%8532m1022hPa91%
21-Apr-2024 18:00Light Rain3°C11 mph, NE93%10000m1022hPa96%
21-Apr-2024 21:00Overcast Clouds1°C13 mph, NE89%10000m1023hPa96%
22-Apr-2024 00:00Overcast Clouds1°C16 mph, NE95%10000m1022hPa96%
22-Apr-2024 03:00Snow2°C16 mph, NE100%10000m1021hPa92%
22-Apr-2024 06:00Overcast Clouds0°C18 mph, NE96%10000m1022hPa91%
22-Apr-2024 09:00Overcast Clouds4°C20 mph, NE100%10000m1021hPa79%
22-Apr-2024 12:00Overcast Clouds7°C20 mph, NE100%10000m1020hPa60%
22-Apr-2024 15:00Overcast Clouds8°C18 mph, NE100%10000m1018hPa61%
22-Apr-2024 18:00Overcast Clouds6°C13 mph, NE100%10000m1018hPa62%
22-Apr-2024 21:00Overcast Clouds4°C16 mph, NE100%10000m1018hPa63%